»·PEaware :: N19947 KPSP-KAPV

N19947 :: KPSP-KAPV

FLIGHT INFORMATION

Flight Status: Arrived
Operator: Privately registered:
United States
More flights under this callsign
Pilot: Adam A. (5112)
Aircraft: CESSNA 172 SKYHAWK
(C172)
More flights by this aircraft type
Origin: KPSP Palm Springs Intl
United States
Destination: KAPV Apple Valley
United States
More flights between these airports :: More routes between these airports
Route: +CATH1 PSP YUCCA V386 APLES
File this flight plan on PilotEdge
Remarks:
Altitude:
(Current/Filed)
11,000ft
Speed:
(Current/Filed)
120kts
Departed: 22-Feb-16 06:51 PM
Arrived: 22-Feb-16 07:49 PM
Distance/Time
Traveled:
56nm/0:58
Distance/Time
To Go:
Arrived

Flight Plot

Page will automatically refresh every two minutes.

Flight plan parsing failed; only flown route is shown


Map Options




Map Legend


Flown Route
Filed Route
Departure Airport
Arrival Airport
Navaid (VOR, NDB)
Fix

Horizontal Profiles

Position Reports

Time Latitude Longitude Heading Altitude Ground
Speed
22-Feb-16 18:18 33.827100 -116.508763 272 480ft 0kts
22-Feb-16 18:19 33.827100 -116.508763 272 480ft 0kts
22-Feb-16 18:20 33.827100 -116.508763 272 480ft 0kts
22-Feb-16 18:21 33.827100 -116.508763 272 480ft 0kts
22-Feb-16 18:22 33.827100 -116.508763 272 480ft 0kts
22-Feb-16 18:23 33.827100 -116.508763 272 480ft 0kts
22-Feb-16 18:24 33.827100 -116.508763 272 480ft 0kts
22-Feb-16 18:25 33.827100 -116.508763 272 480ft 0kts
22-Feb-16 18:26 33.827100 -116.508763 272 480ft 0kts
22-Feb-16 18:27 33.827100 -116.508763 272 480ft 0kts
22-Feb-16 18:28 33.827100 -116.508763 272 480ft 0kts
22-Feb-16 18:29 33.827100 -116.508763 272 480ft 0kts
22-Feb-16 18:30 33.827100 -116.508763 272 480ft 0kts
22-Feb-16 18:32 33.827100 -116.508763 272 480ft 0kts
22-Feb-16 18:33 33.827100 -116.508763 272 480ft 0kts
22-Feb-16 18:34 33.827100 -116.508763 272 480ft 0kts
22-Feb-16 18:35 33.827100 -116.508763 272 480ft 0kts
22-Feb-16 18:36 33.827100 -116.508763 272 480ft 0kts
22-Feb-16 18:37 33.826193 -116.508651 126 480ft 5kts
22-Feb-16 18:38 33.825340 -116.507022 91 480ft 5kts
22-Feb-16 18:39 33.824163 -116.504791 143 480ft 13kts
22-Feb-16 18:40 33.821283 -116.502253 142 480ft 12kts
22-Feb-16 18:41 33.818478 -116.499643 123 480ft 13kts
22-Feb-16 18:42 33.818279 -116.498853 63 480ft 0kts
22-Feb-16 18:43 33.818279 -116.498853 63 480ft 0kts
22-Feb-16 18:44 33.818515 -116.498391 56 480ft 11kts
22-Feb-16 18:45 33.824278 -116.502965 328 557ft 75kts
22-Feb-16 18:46 33.839917 -116.518856 316 1407ft 75kts
22-Feb-16 18:47 33.855149 -116.537369 316 2172ft 80kts
22-Feb-16 18:48 33.869189 -116.557909 322 2950ft 78kts
22-Feb-16 18:49 33.883803 -116.577228 314 3718ft 80kts
22-Feb-16 18:50 33.898109 -116.596775 333 4453ft 77kts
22-Feb-16 18:51 33.904571 -116.578248 104 5118ft 93kts
22-Feb-16 18:52 33.896047 -116.549934 99 5842ft 86kts
22-Feb-16 18:53 33.888536 -116.521535 102 6453ft 93kts
22-Feb-16 18:54 33.881851 -116.492987 83 7087ft 87kts
22-Feb-16 18:55 33.890927 -116.481252 327 7691ft 68kts
22-Feb-16 18:56 33.905766 -116.495805 332 8266ft 70kts
22-Feb-16 18:57 33.922177 -116.506608 340 8846ft 67kts
22-Feb-16 18:58 33.937693 -116.519552 327 9399ft 67kts
22-Feb-16 18:59 33.952529 -116.533092 328 9914ft 67kts
22-Feb-16 19:00 33.970534 -116.532348 2 10326ft 69kts
22-Feb-16 19:01 33.988328 -116.526219 6 10799ft 61kts
22-Feb-16 19:02 34.004790 -116.512253 22 11188ft 70kts
22-Feb-16 19:03 34.022367 -116.500522 9 11572ft 65kts
22-Feb-16 19:04 34.039408 -116.495474 336 11883ft 62kts
22-Feb-16 19:05 34.057273 -116.505565 330 12031ft 83kts
22-Feb-16 19:06 34.077749 -116.520569 335 12032ft 85kts
22-Feb-16 19:07 34.099284 -116.530053 337 12094ft 81kts
22-Feb-16 19:08 34.121738 -116.541179 343 12061ft 103kts
22-Feb-16 19:09 34.149691 -116.550776 343 12103ft 108kts
22-Feb-16 19:09 34.174816 -116.559076 345 12001ft 118kts
22-Feb-16 19:10 34.205287 -116.568092 345 11992ft 116kts
22-Feb-16 19:11 34.233449 -116.577453 343 11990ft 114kts
22-Feb-16 19:12 34.262547 -116.588092 342 11990ft 114kts
22-Feb-16 19:13 34.291231 -116.599093 342 11990ft 113kts
22-Feb-16 19:14 34.320094 -116.610435 341 11990ft 113kts
22-Feb-16 19:15 34.348622 -116.621790 341 11990ft 113kts
22-Feb-16 19:16 34.376709 -116.633046 341 11990ft 113kts
22-Feb-16 19:17 34.404913 -116.644392 341 11990ft 113kts
22-Feb-16 19:18 34.432394 -116.655474 341 11990ft 113kts
22-Feb-16 19:19 34.460001 -116.666623 341 11990ft 113kts
22-Feb-16 19:20 34.477581 -116.693076 313 11991ft 113kts
22-Feb-16 19:21 34.497714 -116.719262 313 11990ft 113kts
22-Feb-16 19:22 34.510441 -116.749094 274 11991ft 113kts
22-Feb-16 19:23 34.512881 -116.783224 275 11990ft 113kts
22-Feb-16 19:24 34.515723 -116.817181 276 11990ft 113kts
22-Feb-16 19:25 34.518742 -116.850687 276 11990ft 113kts
22-Feb-16 19:26 34.521866 -116.884109 276 11990ft 113kts
22-Feb-16 19:27 34.525020 -116.917254 276 11990ft 113kts
22-Feb-16 19:29 34.528307 -116.950708 278 11969ft 116kts
22-Feb-16 19:30 34.532218 -116.984250 278 11280ft 124kts
22-Feb-16 19:31 34.536275 -117.019071 278 10529ft 125kts
22-Feb-16 19:32 34.540229 -117.052967 278 9732ft 128kts
22-Feb-16 19:33 34.544139 -117.086449 278 8946ft 127kts
22-Feb-16 19:34 34.546045 -117.119739 277 8136ft 123kts
22-Feb-16 19:35 34.546563 -117.152285 306 7905ft 82kts
22-Feb-16 19:36 34.555447 -117.142791 134 6878ft 119kts
22-Feb-16 19:37 34.554829 -117.155777 328 5922ft 88kts
22-Feb-16 19:38 34.572222 -117.176164 307 5040ft 86kts
22-Feb-16 19:39 34.581550 -117.201835 300 4383ft 80kts
22-Feb-16 19:40 34.583525 -117.195779 191 3958ft 93kts
22-Feb-16 19:41 34.561587 -117.202433 164 3877ft 82kts
22-Feb-16 19:42 34.568315 -117.189192 25 3238ft 68kts
22-Feb-16 19:43 34.579083 -117.185918 290 3065ft 14kts
22-Feb-16 19:44 34.579986 -117.186828 101 3065ft 0kts

Navigation Log

Ident Type
Flight plan parsing failed, navigation log unavailable